createdAt,value
2017-10-19T00:00:25.994Z,22.96
2017-10-19T00:01:06.443Z,23.02
2017-10-19T00:01:46.900Z,23.04
2017-10-19T00:02:27.346Z,22.98
2017-10-19T00:03:07.794Z,23.02
2017-10-19T00:03:48.311Z,23.04
2017-10-19T00:04:28.763Z,23.01
2017-10-19T00:05:09.229Z,22.99
2017-10-19T00:05:49.686Z,22.99
2017-10-19T00:06:30.145Z,22.99
2017-10-19T00:07:10.611Z,22.98
2017-10-19T00:07:51.061Z,22.99
2017-10-19T00:08:31.507Z,23.02
2017-10-19T00:09:11.963Z,22.96
2017-10-19T00:09:52.417Z,23.04
2017-10-19T00:10:32.878Z,22.95
2017-10-19T00:11:13.331Z,23.01
2017-10-19T00:11:53.787Z,22.95
2017-10-19T00:12:34.245Z,22.96
2017-10-19T00:13:14.736Z,23.04
2017-10-19T00:14:52.178Z,23.01
2017-10-19T00:15:32.639Z,22.92
2017-10-19T00:16:13.099Z,22.99
2017-10-19T00:16:53.548Z,22.99
2017-10-19T00:17:34.005Z,22.96
2017-10-19T00:18:14.456Z,22.99
2017-10-19T00:18:54.913Z,23.01
2017-10-19T00:19:35.367Z,22.99
2017-10-19T00:20:15.815Z,22.95
2017-10-19T00:20:56.264Z,22.98
2017-10-19T00:21:36.710Z,22.95
2017-10-19T00:22:17.167Z,22.99
2017-10-19T00:22:57.618Z,22.99
2017-10-19T00:23:38.078Z,23.01
2017-10-19T00:24:18.539Z,22.98
2017-10-19T00:24:58.988Z,22.95
2017-10-19T00:25:39.442Z,23.02
2017-10-19T00:26:19.901Z,23.01
2017-10-19T00:27:00.355Z,22.99
2017-10-19T00:27:40.829Z,23.02
2017-10-19T00:28:21.256Z,22.99
2017-10-19T00:29:01.714Z,22.99
2017-10-19T00:29:42.158Z,22.96
2017-10-19T00:30:22.607Z,22.96
2017-10-19T00:31:03.058Z,23.02
2017-10-19T00:31:43.507Z,23.01
2017-10-19T00:32:23.965Z,22.93
2017-10-19T00:33:04.417Z,23.02
2017-10-19T00:33:44.873Z,22.99
2017-10-19T00:34:25.328Z,22.93
2017-10-19T00:35:05.774Z,23.01
2017-10-19T00:35:46.230Z,23.02
2017-10-19T00:36:26.696Z,23.02
2017-10-19T00:37:07.141Z,22.99
2017-10-19T00:37:47.589Z,22.95
2017-10-19T00:38:28.037Z,22.98
2017-10-19T00:39:08.488Z,22.96
2017-10-19T00:39:48.940Z,23.01
2017-10-19T00:40:29.391Z,23.02
2017-10-19T00:41:09.832Z,22.93
2017-10-19T00:41:50.285Z,22.99
2017-10-19T00:42:30.733Z,23.04
2017-10-19T00:43:11.191Z,23.02
2017-10-19T00:43:51.653Z,22.95
2017-10-19T00:44:32.101Z,22.95
2017-10-19T00:45:12.556Z,22.93
2017-10-19T00:45:53.021Z,22.96
2017-10-19T00:46:33.452Z,22.98
2017-10-19T00:47:13.907Z,22.93
2017-10-19T00:47:54.367Z,22.99
2017-10-19T00:48:34.825Z,22.96
2017-10-19T00:49:15.291Z,22.93
2017-10-19T00:49:55.744Z,22.99
2017-10-19T00:50:36.199Z,22.98
2017-10-19T00:51:16.662Z,22.95
2017-10-19T00:51:57.112Z,22.96
2017-10-19T00:52:37.561Z,22.95
2017-10-19T00:53:18.003Z,22.96
2017-10-19T00:53:58.456Z,22.96
2017-10-19T00:54:38.915Z,22.96
2017-10-19T00:55:19.367Z,22.99
2017-10-19T00:55:59.820Z,22.95
2017-10-19T00:56:40.273Z,22.96
2017-10-19T00:57:20.730Z,22.93
2017-10-19T00:58:01.186Z,22.95
2017-10-19T00:58:41.640Z,22.95
2017-10-19T00:59:22.094Z,22.91
2017-10-19T01:00:02.541Z,22.96
2017-10-19T01:00:42.981Z,22.98
2017-10-19T01:01:23.449Z,22.95
2017-10-19T01:02:03.899Z,22.93
2017-10-19T01:02:44.346Z,22.96
2017-10-19T01:03:24.791Z,22.95
2017-10-19T01:04:05.248Z,22.96
2017-10-19T01:04:45.694Z,22.98
2017-10-19T01:05:26.150Z,22.96
2017-10-19T01:06:06.604Z,22.93
2017-10-19T01:06:47.053Z,22.92
2017-10-19T01:07:27.512Z,22.95
2017-10-19T01:08:07.964Z,22.95
2017-10-19T01:08:48.421Z,22.95
2017-10-19T01:09:28.873Z,22.95
2017-10-19T01:10:09.333Z,22.95
2017-10-19T01:10:49.811Z,22.93
2017-10-19T01:11:30.274Z,22.93
2017-10-19T01:12:10.742Z,22.93
2017-10-19T01:12:51.183Z,22.95
2017-10-19T01:13:31.633Z,22.95
2017-10-19T01:14:12.082Z,22.96
2017-10-19T01:14:52.530Z,22.95
2017-10-19T01:15:32.979Z,22.93
2017-10-19T01:16:13.424Z,22.96
2017-10-19T01:16:53.866Z,22.93
2017-10-19T01:17:34.314Z,22.92
2017-10-19T01:18:14.767Z,22.96
2017-10-19T01:18:55.221Z,22.96
2017-10-19T01:19:35.685Z,22.95
2017-10-19T01:20:16.142Z,22.95
2017-10-19T01:20:56.580Z,23.06
2017-10-19T01:21:37.039Z,22.98
2017-10-19T01:22:17.496Z,22.99
2017-10-19T01:22:57.947Z,22.99
2017-10-19T01:23:38.394Z,22.96
2017-10-19T01:24:18.853Z,22.98
2017-10-19T01:24:59.309Z,22.95
2017-10-19T01:25:39.755Z,22.96
2017-10-19T01:26:20.211Z,22.95
2017-10-19T01:27:00.669Z,22.98
2017-10-19T01:27:41.125Z,23.02
2017-10-19T01:28:21.585Z,23.02
2017-10-19T01:29:02.040Z,22.92
2017-10-19T01:29:42.500Z,22.96
2017-10-19T01:30:22.949Z,22.93
2017-10-19T01:31:03.398Z,22.95
2017-10-19T01:31:43.841Z,23.01
2017-10-19T01:32:24.289Z,22.95
2017-10-19T01:33:04.747Z,22.98
2017-10-19T01:33:45.190Z,22.92
2017-10-19T01:34:25.652Z,22.98
2017-10-19T01:35:06.099Z,22.96
2017-10-19T01:35:46.558Z,22.95
2017-10-19T01:36:27.008Z,22.96
2017-10-19T01:37:07.472Z,22.91
2017-10-19T01:37:47.924Z,22.96
2017-10-19T01:38:28.383Z,22.91
2017-10-19T01:39:08.842Z,22.93
2017-10-19T01:39:49.291Z,22.96
2017-10-19T01:40:29.731Z,22.92
2017-10-19T01:41:10.190Z,22.86
2017-10-19T01:41:50.647Z,22.98
2017-10-19T01:42:31.091Z,22.89
2017-10-19T01:43:11.548Z,22.88
2017-10-19T01:43:52.012Z,22.86
2017-10-19T01:44:32.461Z,22.93
2017-10-19T01:45:12.906Z,22.92
2017-10-19T01:45:53.357Z,22.86
2017-10-19T01:46:33.800Z,22.96
2017-10-19T01:47:14.259Z,22.88
2017-10-19T01:47:54.709Z,22.86
2017-10-19T01:48:35.164Z,22.86
2017-10-19T01:49:15.629Z,22.86
2017-10-19T01:49:56.077Z,22.95
2017-10-19T01:50:36.552Z,22.92
2017-10-19T01:51:16.994Z,22.84
2017-10-19T01:51:57.449Z,22.92
2017-10-19T01:52:37.906Z,22.89
2017-10-19T01:53:18.372Z,22.89
2017-10-19T01:53:58.819Z,22.84
2017-10-19T01:54:39.280Z,22.92
2017-10-19T01:55:19.729Z,22.98
2017-10-19T01:56:00.186Z,22.84
2017-10-19T01:56:40.648Z,22.89
2017-10-19T01:57:21.101Z,22.92
2017-10-19T01:58:01.554Z,22.86
2017-10-19T01:58:42.043Z,22.95
2017-10-19T01:59:22.459Z,22.91
2017-10-19T02:00:02.915Z,22.92
2017-10-19T02:00:43.364Z,22.89
2017-10-19T02:01:23.814Z,22.89
2017-10-19T02:02:04.272Z,22.88
2017-10-19T02:02:44.729Z,22.88
2017-10-19T02:03:25.199Z,22.92
2017-10-19T02:04:05.644Z,22.89
2017-10-19T02:04:46.105Z,22.81
2017-10-19T02:05:26.560Z,22.88
2017-10-19T02:06:07.012Z,22.88
2017-10-19T02:06:47.461Z,22.92
2017-10-19T02:07:27.927Z,22.92
2017-10-19T02:08:08.380Z,22.93
2017-10-19T02:08:48.846Z,22.92
2017-10-19T02:09:29.293Z,22.92
2017-10-19T02:10:09.748Z,22.93
2017-10-19T02:10:50.198Z,22.92
2017-10-19T02:11:30.649Z,22.88
2017-10-19T02:12:11.100Z,22.95
2017-10-19T02:12:51.559Z,22.92
2017-10-19T02:13:32.010Z,22.86
2017-10-19T02:14:12.469Z,22.98
2017-10-19T02:14:52.928Z,22.88
2017-10-19T02:15:33.394Z,22.92
2017-10-19T02:16:13.840Z,22.93
2017-10-19T02:16:54.285Z,22.86
2017-10-19T02:17:34.729Z,22.86
2017-10-19T02:18:15.166Z,22.86
2017-10-19T02:18:55.616Z,22.95
2017-10-19T02:19:36.066Z,22.88
2017-10-19T02:20:16.518Z,22.84
2017-10-19T02:20:56.977Z,22.91
2017-10-19T02:21:37.427Z,22.95
2017-10-19T02:22:17.886Z,22.93
2017-10-19T02:22:58.343Z,22.95
2017-10-19T02:23:38.793Z,22.84
2017-10-19T02:24:19.244Z,22.84
2017-10-19T02:24:59.699Z,22.91
2017-10-19T02:25:40.151Z,22.92
2017-10-19T02:26:20.593Z,22.91
2017-10-19T02:27:01.048Z,22.88
2017-10-19T02:27:41.510Z,22.86
2017-10-19T02:28:21.958Z,22.92
2017-10-19T02:29:02.407Z,22.86
2017-10-19T02:29:42.892Z,22.84
2017-10-19T02:30:23.339Z,22.91
2017-10-19T02:31:03.786Z,22.93
2017-10-19T02:31:44.233Z,22.96
2017-10-19T02:32:24.680Z,22.91
2017-10-19T02:33:05.133Z,22.86
2017-10-19T02:33:45.588Z,22.92
2017-10-19T02:34:26.039Z,22.88
2017-10-19T02:35:06.480Z,22.91
2017-10-19T02:35:46.927Z,22.89
2017-10-19T02:36:27.371Z,22.88
2017-10-19T02:37:07.834Z,22.91
2017-10-19T02:37:48.300Z,22.92
2017-10-19T02:38:28.760Z,22.92
2017-10-19T02:39:09.211Z,22.91
2017-10-19T02:39:49.680Z,22.86
2017-10-19T02:40:30.123Z,22.95
2017-10-19T02:41:10.575Z,22.88
2017-10-19T02:41:51.016Z,22.86
2017-10-19T02:42:31.478Z,22.84
2017-10-19T02:43:11.935Z,22.89
2017-10-19T02:43:52.387Z,22.81
2017-10-19T02:44:32.844Z,22.84
2017-10-19T02:45:13.297Z,22.78
2017-10-19T02:45:53.750Z,22.88
2017-10-19T02:46:34.215Z,22.91
2017-10-19T02:47:14.650Z,22.78
2017-10-19T02:47:55.106Z,22.91
2017-10-19T02:48:35.555Z,22.84
2017-10-19T02:49:16.007Z,22.78
2017-10-19T02:49:56.456Z,22.83
2017-10-19T02:50:36.906Z,22.81
2017-10-19T02:51:17.363Z,22.83
2017-10-19T02:51:57.808Z,22.8
2017-10-19T02:52:38.269Z,22.81
2017-10-19T02:53:18.756Z,22.81
2017-10-19T02:53:59.206Z,22.77
2017-10-19T02:54:39.660Z,22.8
2017-10-19T02:55:20.117Z,22.81
2017-10-19T02:56:00.572Z,22.83
2017-10-19T02:56:41.022Z,22.81
2017-10-19T02:57:21.474Z,22.77
2017-10-19T02:58:01.935Z,22.8
2017-10-19T02:58:42.383Z,22.81
2017-10-19T02:59:22.844Z,22.74
2017-10-19T03:00:03.300Z,22.77
2017-10-19T03:00:43.751Z,22.71
2017-10-19T03:01:24.200Z,22.78
2017-10-19T03:02:04.652Z,22.73
2017-10-19T03:02:45.101Z,22.74
2017-10-19T03:03:25.548Z,22.78
2017-10-19T03:04:05.999Z,22.71
2017-10-19T03:04:46.446Z,22.76
2017-10-19T03:05:26.892Z,22.78
2017-10-19T03:06:07.347Z,22.76
2017-10-19T03:06:47.811Z,22.76
2017-10-19T03:07:28.278Z,22.76
2017-10-19T03:08:08.733Z,22.74
2017-10-19T03:08:49.189Z,22.68
2017-10-19T03:09:29.642Z,22.74
2017-10-19T03:10:10.087Z,22.65
2017-10-19T03:10:50.548Z,22.76
2017-10-19T03:11:30.997Z,22.73
2017-10-19T03:12:11.453Z,22.74
2017-10-19T03:12:51.910Z,22.74
2017-10-19T03:13:32.366Z,22.7
2017-10-19T03:14:12.834Z,22.68
2017-10-19T03:14:53.280Z,22.68
2017-10-19T03:15:33.722Z,22.7
2017-10-19T03:16:14.168Z,22.68
2017-10-19T03:16:54.626Z,22.73
2017-10-19T03:17:35.085Z,22.71
2017-10-19T03:18:15.541Z,22.7
2017-10-19T03:18:55.982Z,22.73
2017-10-19T03:19:36.437Z,22.74
2017-10-19T03:20:16.902Z,22.76
2017-10-19T03:20:57.352Z,22.76
2017-10-19T03:21:37.819Z,22.71
2017-10-19T03:22:18.271Z,22.76
2017-10-19T03:22:58.715Z,22.76
2017-10-19T03:23:39.170Z,22.76
2017-10-19T03:24:19.631Z,22.7
2017-10-19T03:25:00.093Z,22.77
2017-10-19T03:25:40.553Z,22.74
2017-10-19T03:26:21.004Z,22.7
2017-10-19T03:27:01.468Z,22.71
2017-10-19T03:27:41.916Z,22.7
2017-10-19T03:28:22.371Z,22.76
2017-10-19T03:29:02.829Z,22.73
2017-10-19T03:29:43.280Z,22.76
2017-10-19T03:30:23.729Z,22.76
2017-10-19T03:31:04.186Z,22.71
2017-10-19T03:31:44.646Z,22.74
2017-10-19T03:32:25.103Z,22.7
2017-10-19T03:33:05.562Z,22.74
2017-10-19T03:33:46.041Z,22.74
2017-10-19T03:34:26.460Z,22.67
2017-10-19T03:35:06.907Z,22.67
2017-10-19T03:35:47.354Z,22.76
2017-10-19T03:36:27.816Z,22.68
2017-10-19T03:37:08.274Z,22.7
2017-10-19T03:37:48.743Z,22.73
2017-10-19T03:38:29.645Z,22.76
2017-10-19T03:39:10.101Z,22.65
2017-10-19T03:39:50.552Z,22.73
2017-10-19T03:40:31.017Z,22.76
2017-10-19T03:41:11.477Z,22.7
2017-10-19T03:41:51.930Z,22.78
2017-10-19T03:42:32.384Z,22.78
2017-10-19T03:43:12.824Z,22.71
2017-10-19T03:43:53.272Z,22.77
2017-10-19T03:44:33.728Z,22.81
2017-10-19T03:45:14.184Z,22.71
2017-10-19T03:45:54.685Z,22.7
2017-10-19T03:46:35.812Z,22.78
2017-10-19T03:47:16.388Z,22.7
2017-10-19T03:49:03.895Z,22.81
2017-10-19T03:49:44.341Z,22.84
2017-10-19T03:50:26.553Z,22.8
2017-10-19T03:51:09.108Z,22.81
2017-10-19T03:51:49.557Z,22.83
2017-10-19T03:52:30.013Z,22.8
2017-10-19T03:53:10.465Z,22.86
2017-10-19T03:53:50.922Z,22.76
2017-10-19T03:54:31.378Z,22.74
2017-10-19T03:55:11.828Z,22.8
2017-10-19T03:55:52.275Z,22.78
2017-10-19T03:56:32.728Z,22.73
2017-10-19T03:57:13.172Z,22.78
2017-10-19T03:57:53.607Z,22.74
2017-10-19T03:58:34.099Z,22.74
2017-10-19T03:59:14.555Z,22.71
2017-10-19T03:59:55.002Z,22.73
2017-10-19T04:00:35.460Z,22.71
2017-10-19T04:01:15.905Z,22.83
2017-10-19T04:01:56.353Z,22.76
2017-10-19T04:02:36.806Z,22.81
2017-10-19T04:03:17.258Z,22.81
2017-10-19T04:03:57.718Z,22.84
2017-10-19T04:04:38.164Z,22.84
2017-10-19T04:05:18.616Z,22.81
2017-10-19T04:05:59.070Z,22.78
2017-10-19T04:06:39.544Z,22.78
2017-10-19T04:07:20.001Z,22.83
2017-10-19T04:08:00.466Z,22.92
2017-10-19T04:08:40.908Z,22.88
2017-10-19T04:09:21.353Z,22.86
2017-10-19T04:10:01.804Z,22.86
2017-10-19T04:10:42.250Z,22.89
2017-10-19T04:11:22.713Z,22.89
2017-10-19T04:12:03.171Z,22.95
2017-10-19T04:12:43.627Z,22.88
2017-10-19T04:13:24.071Z,22.93
2017-10-19T04:14:04.548Z,22.98
2017-10-19T04:14:45.013Z,22.88
2017-10-19T04:15:25.459Z,22.93
2017-10-19T04:16:05.903Z,22.95
2017-10-19T04:16:46.350Z,22.89
2017-10-19T04:17:26.805Z,22.99
2017-10-19T04:18:07.263Z,22.98
2017-10-19T04:18:47.718Z,22.95
2017-10-19T04:19:28.159Z,22.93
2017-10-19T04:20:08.611Z,23.01
2017-10-19T04:20:49.066Z,22.99
2017-10-19T04:21:29.520Z,22.96
2017-10-19T04:22:09.975Z,22.99
2017-10-19T04:22:50.433Z,23.02
2017-10-19T04:23:30.886Z,23.01
2017-10-19T04:24:11.340Z,23.02
2017-10-19T04:24:51.782Z,22.95
2017-10-19T04:25:32.242Z,22.96
2017-10-19T04:26:12.693Z,22.95
2017-10-19T04:26:53.140Z,22.95
2017-10-19T04:27:33.617Z,22.98
2017-10-19T04:28:14.062Z,22.98
2017-10-19T04:28:54.513Z,22.98
2017-10-19T04:29:34.969Z,23.01
2017-10-19T04:30:15.407Z,22.96
2017-10-19T04:30:55.860Z,22.95
2017-10-19T04:31:36.308Z,22.98
2017-10-19T04:32:16.758Z,22.96
2017-10-19T04:32:57.202Z,22.98
2017-10-19T04:33:37.650Z,22.99
2017-10-19T04:34:18.111Z,22.98
2017-10-19T04:34:58.564Z,22.95
2017-10-19T04:35:39.018Z,22.95
2017-10-19T04:36:19.472Z,22.96
2017-10-19T04:36:59.922Z,22.99
2017-10-19T04:37:40.369Z,22.98
2017-10-19T04:38:20.826Z,22.99
2017-10-19T04:39:01.278Z,23.01
2017-10-19T04:39:41.736Z,22.98
2017-10-19T04:40:22.183Z,23.02
2017-10-19T04:41:02.636Z,23.02
2017-10-19T04:41:43.089Z,23.06
2017-10-19T04:42:23.542Z,23.06
2017-10-19T04:43:03.997Z,23.04
2017-10-19T04:43:44.449Z,23.01
2017-10-19T04:44:24.904Z,23.04
2017-10-19T04:45:05.366Z,22.98
2017-10-19T04:45:45.813Z,23.04
2017-10-19T04:46:26.284Z,22.96
2017-10-19T04:47:06.726Z,22.98
2017-10-19T04:47:47.177Z,23.01
2017-10-19T04:48:27.634Z,23.04
2017-10-19T04:49:08.087Z,23.04
2017-10-19T04:49:48.536Z,22.96
2017-10-19T04:50:28.992Z,23.06
2017-10-19T04:51:09.441Z,22.96
2017-10-19T04:51:49.898Z,22.96
2017-10-19T04:52:30.359Z,23.04
2017-10-19T04:53:10.804Z,22.96
2017-10-19T04:53:51.266Z,22.99
2017-10-19T04:54:31.715Z,22.91
2017-10-19T04:55:12.163Z,22.99
2017-10-19T04:55:52.637Z,22.99
2017-10-19T04:56:33.074Z,22.92
2017-10-19T04:57:13.532Z,23.02
2017-10-19T04:57:53.985Z,22.93
2017-10-19T04:58:34.442Z,22.98
2017-10-19T04:59:14.901Z,22.96
2017-10-19T04:59:55.361Z,23.01
2017-10-19T05:00:35.808Z,23.04
2017-10-19T05:01:16.254Z,23.04
2017-10-19T05:01:56.714Z,22.99
2017-10-19T05:02:37.166Z,23.01
2017-10-19T05:03:17.616Z,22.96
2017-10-19T05:03:58.073Z,22.98
2017-10-19T05:04:38.528Z,22.98
2017-10-19T05:05:18.984Z,22.98
2017-10-19T05:05:59.436Z,22.98
2017-10-19T05:06:39.885Z,22.93
2017-10-19T05:07:20.346Z,23.01
2017-10-19T05:08:00.795Z,22.95
2017-10-19T05:08:41.247Z,23.02
2017-10-19T05:09:21.697Z,23.04
2017-10-19T05:10:02.147Z,23.04
2017-10-19T05:10:42.594Z,23.04
2017-10-19T05:11:23.044Z,23.01
2017-10-19T05:12:03.491Z,23.01
2017-10-19T05:12:43.952Z,23.01
2017-10-19T05:13:24.411Z,22.95
2017-10-19T05:14:04.867Z,22.98
2017-10-19T05:14:45.320Z,22.98
2017-10-19T05:15:25.767Z,22.92
2017-10-19T05:16:06.218Z,23.01
2017-10-19T05:16:46.671Z,22.93
2017-10-19T05:17:27.139Z,23.01
2017-10-19T05:18:07.588Z,22.98
2017-10-19T05:18:48.045Z,23.06
2017-10-19T05:19:28.499Z,22.98
2017-10-19T05:20:08.953Z,22.98
2017-10-19T05:20:49.416Z,22.95
2017-10-19T05:21:29.875Z,22.95
2017-10-19T05:22:10.366Z,22.93
2017-10-19T05:22:50.770Z,22.92
2017-10-19T05:23:31.213Z,22.95
2017-10-19T05:24:11.668Z,22.95
2017-10-19T05:24:52.122Z,22.93
2017-10-19T05:25:32.576Z,22.98
2017-10-19T05:26:13.020Z,22.99
2017-10-19T05:26:53.485Z,22.92
2017-10-19T05:27:33.938Z,22.96
2017-10-19T05:28:14.394Z,22.98
2017-10-19T05:28:54.845Z,22.96
2017-10-19T05:29:35.302Z,22.91
2017-10-19T05:30:15.756Z,22.92
2017-10-19T05:30:56.202Z,22.96
2017-10-19T05:31:36.662Z,22.98
2017-10-19T05:32:17.111Z,22.93
2017-10-19T05:32:57.594Z,22.93
2017-10-19T05:33:38.009Z,22.92
2017-10-19T05:34:18.470Z,22.95
2017-10-19T05:34:58.928Z,22.89
2017-10-19T05:35:39.387Z,22.93
2017-10-19T05:36:19.845Z,22.89
2017-10-19T05:37:00.295Z,22.84
2017-10-19T05:37:40.769Z,22.84
2017-10-19T05:38:21.195Z,22.93
2017-10-19T05:39:01.644Z,22.91
2017-10-19T05:39:42.083Z,22.86
2017-10-19T05:40:22.525Z,22.88
2017-10-19T05:41:02.974Z,22.91
2017-10-19T05:41:43.444Z,22.88
2017-10-19T05:42:23.898Z,22.84
2017-10-19T05:43:04.357Z,22.81
2017-10-19T05:43:44.807Z,22.91
2017-10-19T05:44:25.265Z,22.83
2017-10-19T05:45:05.719Z,22.83
2017-10-19T05:45:46.173Z,22.81
2017-10-19T05:46:26.619Z,22.83
2017-10-19T05:47:07.080Z,22.8
2017-10-19T05:47:47.520Z,22.86
2017-10-19T05:48:27.982Z,22.84
2017-10-19T05:49:08.418Z,22.78
2017-10-19T05:49:48.859Z,22.8
2017-10-19T05:50:29.318Z,22.8
2017-10-19T05:51:09.776Z,22.77
2017-10-19T05:51:50.222Z,22.78
2017-10-19T05:52:30.685Z,22.81
2017-10-19T05:53:11.135Z,22.83
2017-10-19T05:53:51.599Z,22.76
2017-10-19T05:54:32.079Z,22.74
2017-10-19T05:55:12.532Z,22.83
2017-10-19T05:55:53.063Z,22.81
2017-10-19T05:56:33.439Z,22.83
2017-10-19T05:57:13.902Z,22.71
2017-10-19T05:57:54.366Z,22.74
2017-10-19T05:58:34.814Z,22.86
2017-10-19T06:00:12.413Z,22.73
2017-10-19T06:00:52.891Z,22.76
2017-10-19T06:01:33.341Z,22.76
2017-10-19T06:02:13.792Z,22.78
2017-10-19T06:02:54.246Z,22.76
2017-10-19T06:03:34.686Z,22.83
2017-10-19T06:04:15.351Z,22.76
2017-10-19T06:04:55.803Z,22.77
2017-10-19T06:05:37.111Z,22.77
2017-10-19T06:06:17.560Z,22.83
2017-10-19T06:06:58.001Z,22.77
2017-10-19T06:07:38.433Z,22.86
2017-10-19T06:08:18.893Z,22.8
2017-10-19T06:08:59.356Z,22.83
2017-10-19T06:09:39.808Z,22.77
2017-10-19T06:10:20.564Z,22.8
2017-10-19T06:11:01.030Z,22.8
2017-10-19T06:11:41.465Z,22.8
2017-10-19T06:12:21.909Z,22.81
2017-10-19T06:13:02.359Z,22.77
2017-10-19T06:13:42.809Z,22.8
2017-10-19T06:14:23.782Z,22.78
2017-10-19T06:15:04.229Z,22.74
2017-10-19T06:15:44.675Z,22.78
2017-10-19T06:16:25.128Z,22.84
2017-10-19T06:17:05.573Z,22.86
2017-10-19T06:17:46.110Z,22.77
2017-10-19T06:18:26.566Z,22.81
2017-10-19T06:19:07.032Z,22.83
2017-10-19T06:19:47.486Z,22.78
2017-10-19T06:20:27.933Z,22.8
2017-10-19T06:21:08.424Z,22.83
2017-10-19T06:21:48.904Z,22.83
2017-10-19T06:22:29.352Z,22.83
2017-10-19T06:23:09.798Z,22.83
2017-10-19T06:23:50.265Z,22.83
2017-10-19T06:24:30.716Z,22.8
2017-10-19T06:25:11.164Z,22.8
2017-10-19T06:25:51.618Z,22.8
2017-10-19T06:26:32.049Z,22.81
2017-10-19T06:27:12.494Z,22.81
2017-10-19T06:27:52.948Z,22.8
2017-10-19T06:28:33.540Z,22.81
2017-10-19T06:29:13.995Z,22.83
2017-10-19T06:29:54.456Z,22.81
2017-10-19T06:30:34.925Z,22.86
2017-10-19T06:31:15.371Z,22.81
2017-10-19T06:31:55.850Z,22.84
2017-10-19T06:32:36.280Z,22.83
2017-10-19T06:33:16.717Z,22.91
2017-10-19T06:33:57.179Z,22.83
2017-10-19T06:34:37.638Z,22.83
2017-10-19T06:35:18.094Z,22.78
2017-10-19T06:35:58.543Z,22.81
2017-10-19T06:36:38.961Z,22.86
2017-10-19T06:37:19.402Z,22.84
2017-10-19T06:37:59.846Z,22.8
2017-10-19T06:38:40.293Z,22.8
2017-10-19T06:39:20.733Z,22.8
2017-10-19T06:40:01.180Z,22.86
2017-10-19T06:40:41.629Z,22.8
2017-10-19T06:41:22.101Z,22.81
2017-10-19T06:42:02.553Z,22.81
2017-10-19T06:42:43.014Z,22.8
2017-10-19T06:43:23.458Z,22.81
2017-10-19T06:44:03.903Z,22.77
2017-10-19T06:44:44.351Z,22.8
2017-10-19T06:45:24.791Z,22.78
2017-10-19T06:46:05.245Z,22.84
2017-10-19T06:46:45.718Z,22.81
2017-10-19T06:47:26.164Z,22.86
2017-10-19T06:48:06.630Z,22.84
2017-10-19T06:48:47.098Z,22.8
2017-10-19T06:49:27.555Z,22.92
2017-10-19T06:50:08.003Z,22.84
2017-10-19T06:50:48.455Z,22.86
2017-10-19T06:51:28.908Z,22.88
2017-10-19T06:52:09.358Z,22.95
2017-10-19T06:52:49.831Z,22.91
2017-10-19T06:53:30.288Z,22.92
2017-10-19T06:54:10.737Z,22.88
2017-10-19T06:54:51.194Z,22.86
2017-10-19T06:55:31.653Z,22.95
2017-10-19T06:56:12.106Z,22.91
2017-10-19T06:56:52.556Z,22.89
2017-10-19T06:57:33.011Z,22.92
2017-10-19T06:58:13.466Z,22.92
2017-10-19T06:58:53.972Z,22.83
2017-10-19T06:59:34.438Z,22.86
2017-10-19T07:00:14.890Z,22.92
2017-10-19T07:00:55.362Z,22.92
2017-10-19T07:01:35.806Z,22.95
2017-10-19T07:02:16.259Z,22.88
2017-10-19T07:02:56.721Z,22.96
2017-10-19T07:03:37.181Z,22.95
2017-10-19T07:04:17.632Z,22.89
2017-10-19T07:04:58.097Z,22.92
2017-10-19T07:05:38.551Z,22.93
2017-10-19T07:06:19.007Z,22.89
2017-10-19T07:06:59.493Z,22.91
2017-10-19T07:07:39.950Z,22.96
2017-10-19T07:08:20.402Z,22.92
2017-10-19T07:09:00.859Z,22.89
2017-10-19T07:09:41.312Z,22.95
2017-10-19T07:10:21.770Z,22.99
2017-10-19T07:11:02.221Z,22.96
2017-10-19T07:11:42.684Z,22.99
2017-10-19T07:12:23.147Z,23.02
2017-10-19T07:13:03.843Z,22.99
2017-10-19T07:13:44.419Z,22.95
2017-10-19T07:14:24.766Z,23.08
2017-10-19T07:15:05.311Z,23.02
2017-10-19T07:15:45.766Z,23.02
2017-10-19T07:16:26.218Z,23.11
2017-10-19T07:17:06.666Z,23.1
2017-10-19T07:17:47.109Z,23.13
2017-10-19T07:18:27.694Z,23.11
2017-10-19T07:19:08.030Z,23.11
2017-10-19T07:19:48.520Z,23.2
2017-10-19T07:20:28.978Z,23.18
2017-10-19T07:21:09.425Z,23.11
2017-10-19T07:21:49.876Z,23.2
2017-10-19T07:22:30.332Z,23.13
2017-10-19T07:23:10.786Z,23.18
2017-10-19T07:23:51.261Z,23.13
2017-10-19T07:24:31.698Z,23.16
2017-10-19T07:25:12.159Z,23.13
2017-10-19T07:25:52.609Z,23.21
2017-10-19T07:26:33.061Z,23.2
2017-10-19T07:27:13.509Z,23.14
2017-10-19T07:27:53.958Z,23.23
2017-10-19T07:28:34.406Z,23.21
2017-10-19T07:29:15.042Z,23.23
2017-10-19T07:29:55.622Z,23.25
2017-10-19T07:30:36.031Z,23.29
2017-10-19T07:31:16.609Z,23.28
2017-10-19T07:31:57.019Z,23.28
2017-10-19T07:32:37.457Z,23.28
2017-10-19T07:33:17.919Z,23.39
2017-10-19T07:33:58.371Z,23.37
2017-10-19T07:34:38.834Z,23.26
2017-10-19T07:35:19.282Z,23.39
2017-10-19T07:35:59.728Z,23.33
2017-10-19T07:36:40.181Z,23.32
2017-10-19T07:37:20.625Z,23.33
2017-10-19T07:38:01.068Z,23.39
2017-10-19T07:38:41.518Z,23.47
2017-10-19T07:39:21.966Z,23.49
2017-10-19T07:40:02.422Z,23.58
2017-10-19T07:40:42.862Z,23.63
2017-10-19T07:41:23.318Z,23.67
2017-10-19T07:42:03.774Z,23.76
2017-10-19T07:42:44.232Z,23.69
2017-10-19T07:43:24.683Z,23.7
2017-10-19T07:44:05.130Z,23.74
2017-10-19T07:44:45.597Z,23.79
2017-10-19T07:45:26.043Z,23.85
2017-10-19T07:46:06.490Z,23.85
2017-10-19T07:46:46.937Z,23.84
2017-10-19T07:47:27.383Z,23.82
2017-10-19T07:48:07.833Z,23.76
2017-10-19T07:48:48.280Z,23.76
2017-10-19T07:49:28.723Z,23.88
2017-10-19T07:50:09.175Z,23.81
2017-10-19T07:50:49.764Z,23.81
2017-10-19T07:51:30.074Z,23.77
2017-10-19T07:52:10.581Z,23.7
2017-10-19T07:52:51.033Z,23.79
2017-10-19T07:53:31.470Z,23.76
2017-10-19T07:54:11.918Z,23.76
2017-10-19T07:54:52.373Z,23.85
2017-10-19T07:55:32.813Z,23.74
2017-10-19T07:56:13.272Z,23.79
2017-10-19T07:56:53.724Z,23.85
2017-10-19T07:57:34.178Z,23.82
2017-10-19T07:58:14.636Z,23.82
2017-10-19T07:58:55.083Z,23.86
2017-10-19T07:59:35.540Z,23.84
2017-10-19T08:00:16.143Z,23.84
2017-10-19T08:00:56.591Z,23.82
2017-10-19T08:01:37.050Z,23.86
2017-10-19T08:02:17.513Z,23.82
2017-10-19T08:02:57.966Z,23.91
2017-10-19T08:03:38.474Z,23.74
2017-10-19T08:04:18.929Z,23.89
2017-10-19T08:04:59.400Z,23.89
2017-10-19T08:05:39.853Z,23.91
2017-10-19T08:06:20.313Z,23.95
2017-10-19T08:07:00.766Z,23.95
2017-10-19T08:07:41.209Z,23.84
2017-10-19T08:08:21.677Z,23.79
2017-10-19T08:09:02.138Z,23.79
2017-10-19T08:09:42.603Z,23.85
2017-10-19T08:10:23.061Z,23.84
2017-10-19T08:11:03.512Z,23.74
2017-10-19T08:11:43.974Z,23.71
2017-10-19T08:12:24.415Z,23.79
2017-10-19T08:13:04.872Z,23.71
2017-10-19T08:13:45.286Z,23.76
2017-10-19T08:14:25.744Z,23.69
2017-10-19T08:15:06.200Z,23.81
2017-10-19T08:15:46.653Z,23.73
2017-10-19T08:16:27.108Z,23.73
2017-10-19T08:17:07.559Z,23.76
2017-10-19T08:17:48.016Z,23.69
2017-10-19T08:18:28.467Z,23.62
2017-10-19T08:19:08.912Z,23.73
2017-10-19T08:19:49.423Z,23.73
2017-10-19T08:20:29.802Z,23.74
2017-10-19T08:21:10.212Z,23.69
2017-10-19T08:21:50.666Z,23.7
2017-10-19T08:22:31.111Z,23.84
2017-10-19T08:23:11.566Z,23.92
2017-10-19T08:23:52.006Z,23.94
2017-10-19T08:24:33.126Z,23.92
2017-10-19T08:25:13.577Z,24.06
2017-10-19T08:25:53.997Z,24.14
2017-10-19T08:26:34.471Z,24.21
2017-10-19T08:27:14.928Z,24.21
2017-10-19T08:27:55.383Z,24.24
2017-10-19T08:28:35.825Z,24.32
2017-10-19T08:29:16.274Z,24.4
2017-10-19T08:29:56.732Z,24.46
2017-10-19T08:30:37.186Z,24.47
2017-10-19T08:31:17.643Z,24.48
2017-10-19T08:31:58.091Z,24.59
2017-10-19T08:32:38.547Z,24.65
2017-10-19T08:33:19.002Z,24.62
2017-10-19T08:33:59.456Z,24.66
2017-10-19T08:34:40.720Z,24.66
2017-10-19T08:35:21.151Z,24.78
2017-10-19T08:36:01.604Z,24.79
2017-10-19T08:36:42.047Z,24.86
2017-10-19T08:37:22.500Z,24.88
2017-10-19T08:38:02.959Z,24.96
2017-10-19T08:38:43.405Z,24.92
2017-10-19T08:39:23.852Z,24.94
2017-10-19T08:40:04.324Z,24.96
2017-10-19T08:40:44.777Z,24.96
2017-10-19T08:41:25.229Z,24.97
2017-10-19T08:42:05.685Z,25.03
2017-10-19T08:42:46.154Z,25.01
2017-10-19T08:43:26.582Z,25.04
2017-10-19T08:44:07.037Z,25.16
2017-10-19T08:44:47.485Z,25.18
2017-10-19T08:45:27.911Z,25.16